sensor_id;sensor_type;location;lat;lon;timestamp;P1;durP1;ratioP1;P2;durP2;ratioP2
20038;SDS011;21737;42.868;25.320;2023-04-16T00:01:35;8.23;;;3.20;;
20038;SDS011;21737;42.868;25.320;2023-04-16T00:04:36;5.60;;;2.80;;
20038;SDS011;21737;42.868;25.320;2023-04-16T00:07:38;6.70;;;3.10;;
20038;SDS011;21737;42.868;25.320;2023-04-16T00:10:41;10.23;;;3.47;;
20038;SDS011;21737;42.868;25.320;2023-04-16T00:13:43;8.17;;;3.80;;
20038;SDS011;21737;42.868;25.320;2023-04-16T00:16:44;8.43;;;4.10;;
20038;SDS011;21737;42.868;25.320;2023-04-16T00:19:47;6.57;;;5.13;;
20038;SDS011;21737;42.868;25.320;2023-04-16T00:22:49;9.37;;;3.43;;
20038;SDS011;21737;42.868;25.320;2023-04-16T00:25:51;5.47;;;3.10;;
20038;SDS011;21737;42.868;25.320;2023-04-16T00:28:54;9.90;;;3.50;;
20038;SDS011;21737;42.868;25.320;2023-04-16T00:31:56;7.40;;;3.33;;
20038;SDS011;21737;42.868;25.320;2023-04-16T00:34:57;7.10;;;2.80;;
20038;SDS011;21737;42.868;25.320;2023-04-16T00:37:59;5.90;;;3.23;;
20038;SDS011;21737;42.868;25.320;2023-04-16T00:41:01;7.50;;;3.87;;
20038;SDS011;21737;42.868;25.320;2023-04-16T00:44:02;8.53;;;4.23;;
20038;SDS011;21737;42.868;25.320;2023-04-16T00:47:04;11.27;;;3.80;;
20038;SDS011;21737;42.868;25.320;2023-04-16T00:50:08;7.23;;;3.60;;
20038;SDS011;21737;42.868;25.320;2023-04-16T00:53:10;6.67;;;3.00;;
20038;SDS011;21737;42.868;25.320;2023-04-16T00:56:12;9.93;;;4.00;;
20038;SDS011;21737;42.868;25.320;2023-04-16T00:59:14;8.50;;;3.47;;
20038;SDS011;21737;42.868;25.320;2023-04-16T01:02:15;7.30;;;3.87;;
20038;SDS011;21737;42.868;25.320;2023-04-16T01:05:18;8.53;;;3.67;;
20038;SDS011;21737;42.868;25.320;2023-04-16T01:08:20;7.93;;;3.80;;
20038;SDS011;21737;42.868;25.320;2023-04-16T01:11:22;9.03;;;4.33;;
20038;SDS011;21737;42.868;25.320;2023-04-16T01:14:24;8.80;;;3.73;;
20038;SDS011;21737;42.868;25.320;2023-04-16T01:17:25;9.57;;;4.10;;
20038;SDS011;21737;42.868;25.320;2023-04-16T01:20:27;5.90;;;3.77;;
20038;SDS011;21737;42.868;25.320;2023-04-16T01:23:29;6.30;;;3.43;;
20038;SDS011;21737;42.868;25.320;2023-04-16T01:26:31;10.00;;;3.80;;
20038;SDS011;21737;42.868;25.320;2023-04-16T01:29:32;16.47;;;3.80;;
20038;SDS011;21737;42.868;25.320;2023-04-16T01:32:35;7.53;;;3.10;;
20038;SDS011;21737;42.868;25.320;2023-04-16T01:35:37;7.73;;;3.23;;
20038;SDS011;21737;42.868;25.320;2023-04-16T01:38:39;8.10;;;3.20;;
20038;SDS011;21737;42.868;25.320;2023-04-16T01:41:41;4.60;;;3.10;;
20038;SDS011;21737;42.868;25.320;2023-04-16T01:44:43;7.63;;;3.50;;
20038;SDS011;21737;42.868;25.320;2023-04-16T01:47:45;9.10;;;3.27;;
20038;SDS011;21737;42.868;25.320;2023-04-16T01:50:47;4.63;;;2.97;;
20038;SDS011;21737;42.868;25.320;2023-04-16T01:53:49;5.70;;;2.67;;
20038;SDS011;21737;42.868;25.320;2023-04-16T01:56:50;5.50;;;3.03;;
20038;SDS011;21737;42.868;25.320;2023-04-16T01:59:52;10.30;;;3.17;;
20038;SDS011;21737;42.868;25.320;2023-04-16T02:02:55;6.67;;;2.83;;
20038;SDS011;21737;42.868;25.320;2023-04-16T02:06:01;4.77;;;2.80;;
20038;SDS011;21737;42.868;25.320;2023-04-16T02:12:06;8.83;;;4.10;;
20038;SDS011;21737;42.868;25.320;2023-04-16T02:15:08;10.00;;;3.67;;
20038;SDS011;21737;42.868;25.320;2023-04-16T02:18:10;8.20;;;3.50;;
20038;SDS011;21737;42.868;25.320;2023-04-16T02:21:12;6.67;;;3.73;;
20038;SDS011;21737;42.868;25.320;2023-04-16T02:24:14;5.20;;;2.87;;
20038;SDS011;21737;42.868;25.320;2023-04-16T02:27:16;5.87;;;2.70;;
20038;SDS011;21737;42.868;25.320;2023-04-16T02:30:18;11.87;;;3.40;;
20038;SDS011;21737;42.868;25.320;2023-04-16T02:33:20;7.47;;;2.97;;
20038;SDS011;21737;42.868;25.320;2023-04-16T02:36:35;8.27;;;2.93;;
20038;SDS011;21737;42.868;25.320;2023-04-16T02:39:36;6.17;;;3.30;;
20038;SDS011;21737;42.868;25.320;2023-04-16T02:42:38;8.40;;;3.20;;
20038;SDS011;21737;42.868;25.320;2023-04-16T02:45:40;5.20;;;2.60;;
20038;SDS011;21737;42.868;25.320;2023-04-16T02:48:42;7.13;;;2.80;;
20038;SDS011;21737;42.868;25.320;2023-04-16T02:51:44;8.03;;;2.60;;
20038;SDS011;21737;42.868;25.320;2023-04-16T02:54:46;6.70;;;3.50;;
20038;SDS011;21737;42.868;25.320;2023-04-16T02:57:47;9.13;;;3.40;;
20038;SDS011;21737;42.868;25.320;2023-04-16T03:00:49;8.63;;;3.77;;
20038;SDS011;21737;42.868;25.320;2023-04-16T03:03:51;9.40;;;3.30;;
20038;SDS011;21737;42.868;25.320;2023-04-16T03:06:53;8.37;;;2.97;;
20038;SDS011;21737;42.868;25.320;2023-04-16T03:09:55;7.93;;;3.33;;
20038;SDS011;21737;42.868;25.320;2023-04-16T03:12:56;5.83;;;3.10;;
20038;SDS011;21737;42.868;25.320;2023-04-16T03:15:58;8.23;;;3.73;;
20038;SDS011;21737;42.868;25.320;2023-04-16T03:19:00;4.20;;;2.90;;
20038;SDS011;21737;42.868;25.320;2023-04-16T03:22:02;11.00;;;3.20;;
20038;SDS011;21737;42.868;25.320;2023-04-16T03:25:03;9.70;;;3.40;;
20038;SDS011;21737;42.868;25.320;2023-04-16T03:28:05;9.23;;;3.33;;
20038;SDS011;21737;42.868;25.320;2023-04-16T03:31:08;28.90;;;4.53;;
20038;SDS011;21737;42.868;25.320;2023-04-16T03:34:11;6.80;;;3.13;;
20038;SDS011;21737;42.868;25.320;2023-04-16T03:37:14;6.70;;;3.07;;
20038;SDS011;21737;42.868;25.320;2023-04-16T03:40:16;7.53;;;3.03;;
20038;SDS011;21737;42.868;25.320;2023-04-16T03:43:18;7.77;;;3.50;;
20038;SDS011;21737;42.868;25.320;2023-04-16T03:46:20;7.10;;;3.20;;
20038;SDS011;21737;42.868;25.320;2023-04-16T03:49:22;6.67;;;3.53;;
20038;SDS011;21737;42.868;25.320;2023-04-16T03:52:24;6.17;;;3.07;;
20038;SDS011;21737;42.868;25.320;2023-04-16T03:55:27;13.57;;;3.93;;
20038;SDS011;21737;42.868;25.320;2023-04-16T03:58:30;10.70;;;3.80;;
20038;SDS011;21737;42.868;25.320;2023-04-16T04:01:32;37.70;;;7.07;;
20038;SDS011;21737;42.868;25.320;2023-04-16T04:04:35;13.63;;;4.00;;
20038;SDS011;21737;42.868;25.320;2023-04-16T04:07:36;5.93;;;3.30;;
20038;SDS011;21737;42.868;25.320;2023-04-16T04:10:38;7.33;;;3.40;;
20038;SDS011;21737;42.868;25.320;2023-04-16T04:13:43;10.20;;;3.20;;
20038;SDS011;21737;42.868;25.320;2023-04-16T04:16:44;8.00;;;4.00;;
20038;SDS011;21737;42.868;25.320;2023-04-16T04:19:48;9.43;;;4.27;;
20038;SDS011;21737;42.868;25.320;2023-04-16T04:23:03;10.03;;;4.07;;
20038;SDS011;21737;42.868;25.320;2023-04-16T04:26:05;13.73;;;4.70;;
20038;SDS011;21737;42.868;25.320;2023-04-16T04:29:08;9.00;;;4.57;;
20038;SDS011;21737;42.868;25.320;2023-04-16T04:32:10;10.47;;;5.93;;
20038;SDS011;21737;42.868;25.320;2023-04-16T04:35:12;11.67;;;5.80;;
20038;SDS011;21737;42.868;25.320;2023-04-16T04:38:15;8.80;;;5.13;;
20038;SDS011;21737;42.868;25.320;2023-04-16T04:41:20;12.27;;;5.67;;
20038;SDS011;21737;42.868;25.320;2023-04-16T04:44:22;10.37;;;6.10;;
20038;SDS011;21737;42.868;25.320;2023-04-16T04:47:24;14.10;;;6.27;;
20038;SDS011;21737;42.868;25.320;2023-04-16T04:50:27;13.73;;;6.03;;
20038;SDS011;21737;42.868;25.320;2023-04-16T04:53:28;12.73;;;6.00;;
20038;SDS011;21737;42.868;25.320;2023-04-16T04:56:30;12.77;;;6.00;;
20038;SDS011;21737;42.868;25.320;2023-04-16T04:59:32;14.13;;;8.20;;
20038;SDS011;21737;42.868;25.320;2023-04-16T05:02:34;14.00;;;6.30;;
20038;SDS011;21737;42.868;25.320;2023-04-16T05:05:37;14.80;;;7.00;;
20038;SDS011;21737;42.868;25.320;2023-04-16T05:08:39;13.10;;;7.47;;
20038;SDS011;21737;42.868;25.320;2023-04-16T05:11:41;11.93;;;7.03;;
20038;SDS011;21737;42.868;25.320;2023-04-16T05:14:42;13.60;;;6.47;;
20038;SDS011;21737;42.868;25.320;2023-04-16T05:17:48;12.47;;;6.77;;
20038;SDS011;21737;42.868;25.320;2023-04-16T05:20:50;11.57;;;5.97;;
20038;SDS011;21737;42.868;25.320;2023-04-16T05:23:52;15.13;;;7.07;;
20038;SDS011;21737;42.868;25.320;2023-04-16T05:26:54;12.70;;;7.20;;
20038;SDS011;21737;42.868;25.320;2023-04-16T05:29:57;13.00;;;6.93;;
20038;SDS011;21737;42.868;25.320;2023-04-16T05:32:58;15.00;;;6.73;;
20038;SDS011;21737;42.868;25.320;2023-04-16T05:36:00;14.63;;;6.40;;
20038;SDS011;21737;42.868;25.320;2023-04-16T05:39:02;13.03;;;6.50;;
20038;SDS011;21737;42.868;25.320;2023-04-16T05:42:04;11.93;;;4.43;;
20038;SDS011;21737;42.868;25.320;2023-04-16T05:45:06;8.43;;;4.37;;
20038;SDS011;21737;42.868;25.320;2023-04-16T05:48:08;6.23;;;3.53;;
20038;SDS011;21737;42.868;25.320;2023-04-16T05:51:14;11.00;;;4.13;;
20038;SDS011;21737;42.868;25.320;2023-04-16T05:54:15;6.60;;;3.60;;
20038;SDS011;21737;42.868;25.320;2023-04-16T05:57:17;10.23;;;4.70;;
20038;SDS011;21737;42.868;25.320;2023-04-16T06:00:19;10.90;;;4.43;;
20038;SDS011;21737;42.868;25.320;2023-04-16T06:03:21;10.70;;;4.50;;
20038;SDS011;21737;42.868;25.320;2023-04-16T06:06:23;12.20;;;4.87;;
20038;SDS011;21737;42.868;25.320;2023-04-16T06:09:24;8.57;;;4.40;;
20038;SDS011;21737;42.868;25.320;2023-04-16T06:12:26;10.87;;;4.70;;
20038;SDS011;21737;42.868;25.320;2023-04-16T06:15:28;9.03;;;4.77;;
20038;SDS011;21737;42.868;25.320;2023-04-16T06:18:29;8.07;;;4.70;;
20038;SDS011;21737;42.868;25.320;2023-04-16T06:21:31;10.37;;;4.60;;
20038;SDS011;21737;42.868;25.320;2023-04-16T06:24:33;10.13;;;4.83;;
20038;SDS011;21737;42.868;25.320;2023-04-16T06:27:35;9.43;;;4.90;;
20038;SDS011;21737;42.868;25.320;2023-04-16T06:30:37;9.37;;;4.30;;
20038;SDS011;21737;42.868;25.320;2023-04-16T06:33:39;9.73;;;4.67;;
20038;SDS011;21737;42.868;25.320;2023-04-16T06:36:41;9.50;;;4.30;;
20038;SDS011;21737;42.868;25.320;2023-04-16T06:39:43;12.53;;;5.03;;
20038;SDS011;21737;42.868;25.320;2023-04-16T06:42:44;10.90;;;5.10;;
20038;SDS011;21737;42.868;25.320;2023-04-16T06:45:46;12.07;;;5.73;;
20038;SDS011;21737;42.868;25.320;2023-04-16T06:48:48;10.47;;;5.30;;
20038;SDS011;21737;42.868;25.320;2023-04-16T06:51:50;11.87;;;5.17;;
20038;SDS011;21737;42.868;25.320;2023-04-16T06:54:51;11.10;;;5.43;;
20038;SDS011;21737;42.868;25.320;2023-04-16T06:57:53;15.93;;;5.37;;
20038;SDS011;21737;42.868;25.320;2023-04-16T07:00:55;10.03;;;5.70;;
20038;SDS011;21737;42.868;25.320;2023-04-16T07:03:57;7.90;;;5.23;;
20038;SDS011;21737;42.868;25.320;2023-04-16T07:06:59;13.83;;;6.20;;
20038;SDS011;21737;42.868;25.320;2023-04-16T07:10:00;11.77;;;6.40;;
20038;SDS011;21737;42.868;25.320;2023-04-16T07:13:02;11.97;;;6.30;;
20038;SDS011;21737;42.868;25.320;2023-04-16T07:16:04;9.97;;;6.43;;
20038;SDS011;21737;42.868;25.320;2023-04-16T07:19:06;10.27;;;5.40;;
20038;SDS011;21737;42.868;25.320;2023-04-16T07:22:08;10.27;;;5.10;;
20038;SDS011;21737;42.868;25.320;2023-04-16T07:25:10;15.30;;;5.60;;
20038;SDS011;21737;42.868;25.320;2023-04-16T07:28:12;10.53;;;5.23;;
20038;SDS011;21737;42.868;25.320;2023-04-16T07:31:13;10.13;;;5.30;;
20038;SDS011;21737;42.868;25.320;2023-04-16T07:34:15;7.93;;;4.77;;
20038;SDS011;21737;42.868;25.320;2023-04-16T07:37:16;10.70;;;5.07;;
20038;SDS011;21737;42.868;25.320;2023-04-16T07:40:18;10.83;;;4.90;;
20038;SDS011;21737;42.868;25.320;2023-04-16T07:43:20;9.17;;;4.70;;
20038;SDS011;21737;42.868;25.320;2023-04-16T07:46:22;9.87;;;4.60;;
20038;SDS011;21737;42.868;25.320;2023-04-16T07:49:26;9.67;;;4.83;;
20038;SDS011;21737;42.868;25.320;2023-04-16T07:52:28;8.20;;;4.43;;
20038;SDS011;21737;42.868;25.320;2023-04-16T07:55:30;7.67;;;4.57;;
20038;SDS011;21737;42.868;25.320;2023-04-16T07:58:31;8.20;;;4.63;;
20038;SDS011;21737;42.868;25.320;2023-04-16T08:01:33;8.53;;;5.03;;
20038;SDS011;21737;42.868;25.320;2023-04-16T08:04:35;9.73;;;5.47;;
20038;SDS011;21737;42.868;25.320;2023-04-16T08:07:37;9.43;;;5.00;;
20038;SDS011;21737;42.868;25.320;2023-04-16T08:10:38;9.93;;;5.30;;
20038;SDS011;21737;42.868;25.320;2023-04-16T08:13:40;9.20;;;5.87;;
20038;SDS011;21737;42.868;25.320;2023-04-16T08:16:42;14.17;;;6.33;;
20038;SDS011;21737;42.868;25.320;2023-04-16T08:19:44;10.77;;;6.60;;
20038;SDS011;21737;42.868;25.320;2023-04-16T08:22:47;13.00;;;6.97;;
20038;SDS011;21737;42.868;25.320;2023-04-16T08:25:48;10.73;;;6.27;;
20038;SDS011;21737;42.868;25.320;2023-04-16T08:28:53;9.47;;;6.13;;
20038;SDS011;21737;42.868;25.320;2023-04-16T08:31:55;10.53;;;6.33;;
20038;SDS011;21737;42.868;25.320;2023-04-16T08:34:56;9.27;;;5.93;;
20038;SDS011;21737;42.868;25.320;2023-04-16T08:37:58;11.03;;;6.33;;
20038;SDS011;21737;42.868;25.320;2023-04-16T08:41:04;15.50;;;6.67;;
20038;SDS011;21737;42.868;25.320;2023-04-16T08:44:07;12.10;;;6.80;;
20038;SDS011;21737;42.868;25.320;2023-04-16T08:47:09;11.83;;;6.40;;
20038;SDS011;21737;42.868;25.320;2023-04-16T08:50:13;10.17;;;6.30;;
20038;SDS011;21737;42.868;25.320;2023-04-16T08:53:16;14.57;;;7.03;;
20038;SDS011;21737;42.868;25.320;2023-04-16T08:56:19;13.77;;;8.23;;
20038;SDS011;21737;42.868;25.320;2023-04-16T08:59:21;10.37;;;6.80;;
20038;SDS011;21737;42.868;25.320;2023-04-16T09:02:24;12.70;;;6.80;;
20038;SDS011;21737;42.868;25.320;2023-04-16T09:05:26;12.47;;;7.20;;
20038;SDS011;21737;42.868;25.320;2023-04-16T09:08:30;13.70;;;6.50;;
20038;SDS011;21737;42.868;25.320;2023-04-16T09:11:32;16.07;;;8.37;;
20038;SDS011;21737;42.868;25.320;2023-04-16T09:14:34;14.83;;;8.27;;
20038;SDS011;21737;42.868;25.320;2023-04-16T09:17:36;14.83;;;8.73;;
20038;SDS011;21737;42.868;25.320;2023-04-16T09:20:38;13.43;;;8.70;;
20038;SDS011;21737;42.868;25.320;2023-04-16T09:23:40;17.13;;;8.80;;
20038;SDS011;21737;42.868;25.320;2023-04-16T09:26:42;13.30;;;7.93;;
20038;SDS011;21737;42.868;25.320;2023-04-16T09:29:44;10.60;;;7.33;;
20038;SDS011;21737;42.868;25.320;2023-04-16T09:32:46;13.37;;;7.90;;
20038;SDS011;21737;42.868;25.320;2023-04-16T09:35:49;14.80;;;7.97;;
20038;SDS011;21737;42.868;25.320;2023-04-16T09:38:51;14.83;;;6.60;;
20038;SDS011;21737;42.868;25.320;2023-04-16T09:41:56;10.53;;;6.30;;
20038;SDS011;21737;42.868;25.320;2023-04-16T09:44:57;12.53;;;5.70;;
20038;SDS011;21737;42.868;25.320;2023-04-16T09:48:02;11.90;;;5.43;;
20038;SDS011;21737;42.868;25.320;2023-04-16T09:51:06;11.53;;;6.23;;
20038;SDS011;21737;42.868;25.320;2023-04-16T09:54:08;12.57;;;7.47;;
20038;SDS011;21737;42.868;25.320;2023-04-16T09:57:19;11.37;;;6.70;;
20038;SDS011;21737;42.868;25.320;2023-04-16T10:00:22;16.77;;;7.07;;
20038;SDS011;21737;42.868;25.320;2023-04-16T10:03:27;14.53;;;6.73;;
20038;SDS011;21737;42.868;25.320;2023-04-16T10:06:32;15.67;;;7.27;;
20038;SDS011;21737;42.868;25.320;2023-04-16T10:09:37;10.83;;;6.67;;
20038;SDS011;21737;42.868;25.320;2023-04-16T10:12:38;15.57;;;7.07;;
20038;SDS011;21737;42.868;25.320;2023-04-16T10:15:40;19.27;;;7.57;;
20038;SDS011;21737;42.868;25.320;2023-04-16T10:18:43;11.50;;;6.57;;
20038;SDS011;21737;42.868;25.320;2023-04-16T10:21:45;13.30;;;6.70;;
20038;SDS011;21737;42.868;25.320;2023-04-16T10:24:48;17.07;;;7.20;;
20038;SDS011;21737;42.868;25.320;2023-04-16T10:27:50;13.27;;;6.57;;
20038;SDS011;21737;42.868;25.320;2023-04-16T10:30:52;12.27;;;6.77;;
20038;SDS011;21737;42.868;25.320;2023-04-16T10:33:55;15.03;;;6.40;;
20038;SDS011;21737;42.868;25.320;2023-04-16T10:36:57;13.53;;;6.67;;
20038;SDS011;21737;42.868;25.320;2023-04-16T10:39:59;10.87;;;6.50;;
20038;SDS011;21737;42.868;25.320;2023-04-16T10:43:00;14.30;;;6.33;;
20038;SDS011;21737;42.868;25.320;2023-04-16T10:49:23;11.70;;;6.00;;
20038;SDS011;21737;42.868;25.320;2023-04-16T10:52:25;11.17;;;6.10;;
20038;SDS011;21737;42.868;25.320;2023-04-16T10:55:29;10.77;;;5.23;;
20038;SDS011;21737;42.868;25.320;2023-04-16T10:58:33;13.80;;;5.20;;
20038;SDS011;21737;42.868;25.320;2023-04-16T11:01:36;15.13;;;6.93;;
20038;SDS011;21737;42.868;25.320;2023-04-16T11:04:40;14.97;;;5.67;;
20038;SDS011;21737;42.868;25.320;2023-04-16T11:07:45;10.63;;;5.50;;
20038;SDS011;21737;42.868;25.320;2023-04-16T11:10:50;11.90;;;5.50;;
20038;SDS011;21737;42.868;25.320;2023-04-16T11:13:53;14.00;;;5.37;;
20038;SDS011;21737;42.868;25.320;2023-04-16T11:16:56;12.23;;;4.90;;
20038;SDS011;21737;42.868;25.320;2023-04-16T11:19:58;13.10;;;4.60;;
20038;SDS011;21737;42.868;25.320;2023-04-16T11:23:00;10.43;;;4.53;;
20038;SDS011;21737;42.868;25.320;2023-04-16T11:26:02;8.17;;;4.50;;
20038;SDS011;21737;42.868;25.320;2023-04-16T11:29:03;11.10;;;4.53;;
20038;SDS011;21737;42.868;25.320;2023-04-16T11:32:19;10.37;;;4.80;;
20038;SDS011;21737;42.868;25.320;2023-04-16T11:35:21;13.27;;;5.27;;
20038;SDS011;21737;42.868;25.320;2023-04-16T11:38:31;10.60;;;5.30;;
20038;SDS011;21737;42.868;25.320;2023-04-16T11:41:33;10.13;;;5.17;;
20038;SDS011;21737;42.868;25.320;2023-04-16T11:44:34;8.40;;;3.93;;
20038;SDS011;21737;42.868;25.320;2023-04-16T11:50:46;9.03;;;3.70;;
20038;SDS011;21737;42.868;25.320;2023-04-16T11:53:55;9.23;;;3.83;;
20038;SDS011;21737;42.868;25.320;2023-04-16T11:56:57;6.53;;;3.20;;
20038;SDS011;21737;42.868;25.320;2023-04-16T11:59:59;6.73;;;3.00;;
20038;SDS011;21737;42.868;25.320;2023-04-16T12:03:12;7.70;;;2.87;;
20038;SDS011;21737;42.868;25.320;2023-04-16T12:06:15;7.47;;;3.27;;
20038;SDS011;21737;42.868;25.320;2023-04-16T12:09:23;11.60;;;3.50;;
20038;SDS011;21737;42.868;25.320;2023-04-16T12:12:29;9.37;;;3.00;;
20038;SDS011;21737;42.868;25.320;2023-04-16T12:15:42;7.23;;;3.00;;
20038;SDS011;21737;42.868;25.320;2023-04-16T12:18:57;7.30;;;3.13;;
20038;SDS011;21737;42.868;25.320;2023-04-16T12:21:59;8.27;;;3.53;;
20038;SDS011;21737;42.868;25.320;2023-04-16T12:25:01;7.10;;;3.10;;
20038;SDS011;21737;42.868;25.320;2023-04-16T12:28:04;12.37;;;4.43;;
20038;SDS011;21737;42.868;25.320;2023-04-16T12:31:06;7.93;;;3.40;;
20038;SDS011;21737;42.868;25.320;2023-04-16T12:34:09;8.27;;;3.07;;
20038;SDS011;21737;42.868;25.320;2023-04-16T12:37:10;6.87;;;3.50;;
20038;SDS011;21737;42.868;25.320;2023-04-16T12:40:13;6.27;;;3.43;;
20038;SDS011;21737;42.868;25.320;2023-04-16T12:43:15;6.43;;;3.30;;
20038;SDS011;21737;42.868;25.320;2023-04-16T12:46:17;7.40;;;3.47;;
20038;SDS011;21737;42.868;25.320;2023-04-16T12:49:19;7.50;;;3.50;;
20038;SDS011;21737;42.868;25.320;2023-04-16T12:52:20;9.50;;;3.60;;
20038;SDS011;21737;42.868;25.320;2023-04-16T12:55:24;12.87;;;3.70;;
20038;SDS011;21737;42.868;25.320;2023-04-16T12:58:26;7.17;;;3.63;;
20038;SDS011;21737;42.868;25.320;2023-04-16T13:01:28;7.67;;;3.33;;
20038;SDS011;21737;42.868;25.320;2023-04-16T13:04:29;7.63;;;3.60;;
20038;SDS011;21737;42.868;25.320;2023-04-16T13:07:31;9.50;;;3.30;;
20038;SDS011;21737;42.868;25.320;2023-04-16T13:10:34;7.03;;;3.23;;
20038;SDS011;21737;42.868;25.320;2023-04-16T13:13:36;7.00;;;3.23;;
20038;SDS011;21737;42.868;25.320;2023-04-16T13:16:37;7.47;;;3.10;;
20038;SDS011;21737;42.868;25.320;2023-04-16T13:19:39;8.30;;;3.33;;
20038;SDS011;21737;42.868;25.320;2023-04-16T13:22:41;5.33;;;2.77;;
20038;SDS011;21737;42.868;25.320;2023-04-16T13:25:43;6.23;;;2.80;;
20038;SDS011;21737;42.868;25.320;2023-04-16T13:28:44;7.13;;;2.90;;
20038;SDS011;21737;42.868;25.320;2023-04-16T13:31:46;7.27;;;3.40;;
20038;SDS011;21737;42.868;25.320;2023-04-16T13:34:48;5.50;;;2.70;;
20038;SDS011;21737;42.868;25.320;2023-04-16T13:37:50;5.37;;;2.70;;
20038;SDS011;21737;42.868;25.320;2023-04-16T13:40:51;9.17;;;3.73;;
20038;SDS011;21737;42.868;25.320;2023-04-16T13:43:53;11.43;;;3.80;;
20038;SDS011;21737;42.868;25.320;2023-04-16T13:46:55;9.40;;;3.53;;
20038;SDS011;21737;42.868;25.320;2023-04-16T13:49:57;6.27;;;3.53;;
20038;SDS011;21737;42.868;25.320;2023-04-16T13:52:58;8.93;;;3.67;;
20038;SDS011;21737;42.868;25.320;2023-04-16T13:56:01;8.73;;;4.03;;
20038;SDS011;21737;42.868;25.320;2023-04-16T13:59:04;9.33;;;3.80;;
20038;SDS011;21737;42.868;25.320;2023-04-16T14:02:05;7.73;;;3.67;;
20038;SDS011;21737;42.868;25.320;2023-04-16T14:05:07;13.50;;;3.70;;
20038;SDS011;21737;42.868;25.320;2023-04-16T14:08:09;6.20;;;3.30;;
20038;SDS011;21737;42.868;25.320;2023-04-16T14:11:11;6.70;;;3.60;;
20038;SDS011;21737;42.868;25.320;2023-04-16T14:14:13;8.77;;;3.63;;
20038;SDS011;21737;42.868;25.320;2023-04-16T14:17:15;9.07;;;4.03;;
20038;SDS011;21737;42.868;25.320;2023-04-16T14:20:17;9.30;;;3.43;;
20038;SDS011;21737;42.868;25.320;2023-04-16T14:23:19;9.20;;;3.87;;
20038;SDS011;21737;42.868;25.320;2023-04-16T14:26:21;6.47;;;3.97;;
20038;SDS011;21737;42.868;25.320;2023-04-16T14:29:22;10.23;;;4.03;;
20038;SDS011;21737;42.868;25.320;2023-04-16T14:32:27;6.50;;;3.40;;
20038;SDS011;21737;42.868;25.320;2023-04-16T14:35:29;8.30;;;3.53;;
20038;SDS011;21737;42.868;25.320;2023-04-16T14:38:31;5.23;;;2.90;;
20038;SDS011;21737;42.868;25.320;2023-04-16T14:41:32;5.57;;;2.73;;
20038;SDS011;21737;42.868;25.320;2023-04-16T14:44:34;6.37;;;2.70;;
20038;SDS011;21737;42.868;25.320;2023-04-16T14:47:36;5.30;;;2.70;;
20038;SDS011;21737;42.868;25.320;2023-04-16T14:50:38;4.10;;;2.80;;
20038;SDS011;21737;42.868;25.320;2023-04-16T14:53:43;7.00;;;2.93;;
20038;SDS011;21737;42.868;25.320;2023-04-16T14:56:45;6.23;;;2.90;;
20038;SDS011;21737;42.868;25.320;2023-04-16T14:59:47;5.00;;;2.57;;
20038;SDS011;21737;42.868;25.320;2023-04-16T15:02:49;5.00;;;2.90;;
20038;SDS011;21737;42.868;25.320;2023-04-16T15:05:51;4.80;;;3.00;;
20038;SDS011;21737;42.868;25.320;2023-04-16T15:08:56;6.57;;;4.20;;
20038;SDS011;21737;42.868;25.320;2023-04-16T15:11:58;10.60;;;4.30;;
20038;SDS011;21737;42.868;25.320;2023-04-16T15:15:00;8.13;;;4.27;;
20038;SDS011;21737;42.868;25.320;2023-04-16T15:18:02;8.63;;;3.90;;
20038;SDS011;21737;42.868;25.320;2023-04-16T15:21:04;6.57;;;4.00;;
20038;SDS011;21737;42.868;25.320;2023-04-16T15:24:06;7.63;;;3.63;;
20038;SDS011;21737;42.868;25.320;2023-04-16T15:27:08;10.27;;;5.53;;
20038;SDS011;21737;42.868;25.320;2023-04-16T15:30:12;10.93;;;4.70;;
20038;SDS011;21737;42.868;25.320;2023-04-16T15:33:14;9.40;;;4.30;;
20038;SDS011;21737;42.868;25.320;2023-04-16T15:36:15;9.90;;;4.50;;
20038;SDS011;21737;42.868;25.320;2023-04-16T15:39:17;7.80;;;3.97;;
20038;SDS011;21737;42.868;25.320;2023-04-16T15:42:19;5.87;;;3.93;;
20038;SDS011;21737;42.868;25.320;2023-04-16T15:45:21;9.23;;;4.43;;
20038;SDS011;21737;42.868;25.320;2023-04-16T15:48:22;9.47;;;4.77;;
20038;SDS011;21737;42.868;25.320;2023-04-16T15:51:24;9.77;;;5.40;;
20038;SDS011;21737;42.868;25.320;2023-04-16T15:54:27;20.00;;;8.67;;
20038;SDS011;21737;42.868;25.320;2023-04-16T15:57:29;12.30;;;6.00;;
20038;SDS011;21737;42.868;25.320;2023-04-16T16:00:31;38.33;;;21.53;;
20038;SDS011;21737;42.868;25.320;2023-04-16T16:03:33;14.10;;;7.80;;
20038;SDS011;21737;42.868;25.320;2023-04-16T16:06:36;7.40;;;4.73;;
20038;SDS011;21737;42.868;25.320;2023-04-16T16:09:38;10.40;;;5.33;;
20038;SDS011;21737;42.868;25.320;2023-04-16T16:12:40;13.20;;;4.60;;
20038;SDS011;21737;42.868;25.320;2023-04-16T16:15:42;9.50;;;5.10;;
20038;SDS011;21737;42.868;25.320;2023-04-16T16:18:44;9.97;;;5.33;;
20038;SDS011;21737;42.868;25.320;2023-04-16T16:21:45;7.20;;;4.97;;
20038;SDS011;21737;42.868;25.320;2023-04-16T16:24:47;8.37;;;5.13;;
20038;SDS011;21737;42.868;25.320;2023-04-16T16:27:51;9.97;;;5.27;;
20038;SDS011;21737;42.868;25.320;2023-04-16T16:30:53;10.13;;;4.87;;
20038;SDS011;21737;42.868;25.320;2023-04-16T16:33:56;8.10;;;5.10;;
20038;SDS011;21737;42.868;25.320;2023-04-16T16:36:57;8.63;;;5.17;;
20038;SDS011;21737;42.868;25.320;2023-04-16T16:39:59;8.37;;;5.40;;
20038;SDS011;21737;42.868;25.320;2023-04-16T16:43:01;13.63;;;6.60;;
20038;SDS011;21737;42.868;25.320;2023-04-16T16:46:04;10.67;;;4.77;;
20038;SDS011;21737;42.868;25.320;2023-04-16T16:49:07;10.70;;;4.87;;
20038;SDS011;21737;42.868;25.320;2023-04-16T16:52:10;12.67;;;6.23;;
20038;SDS011;21737;42.868;25.320;2023-04-16T16:55:12;6.50;;;4.87;;
20038;SDS011;21737;42.868;25.320;2023-04-16T16:58:14;8.37;;;4.10;;
20038;SDS011;21737;42.868;25.320;2023-04-16T17:01:16;8.63;;;4.43;;
20038;SDS011;21737;42.868;25.320;2023-04-16T17:04:18;7.37;;;4.53;;
20038;SDS011;21737;42.868;25.320;2023-04-16T17:07:21;10.00;;;4.73;;
20038;SDS011;21737;42.868;25.320;2023-04-16T17:10:22;9.23;;;4.57;;
20038;SDS011;21737;42.868;25.320;2023-04-16T17:13:25;6.97;;;4.57;;
20038;SDS011;21737;42.868;25.320;2023-04-16T17:16:27;6.27;;;4.17;;
20038;SDS011;21737;42.868;25.320;2023-04-16T17:19:29;7.80;;;4.57;;
20038;SDS011;21737;42.868;25.320;2023-04-16T17:22:31;7.53;;;4.10;;
20038;SDS011;21737;42.868;25.320;2023-04-16T17:25:32;8.00;;;5.00;;
20038;SDS011;21737;42.868;25.320;2023-04-16T17:28:34;10.10;;;6.77;;
20038;SDS011;21737;42.868;25.320;2023-04-16T17:31:36;13.23;;;8.20;;
20038;SDS011;21737;42.868;25.320;2023-04-16T17:34:38;7.33;;;4.83;;
20038;SDS011;21737;42.868;25.320;2023-04-16T17:37:39;9.70;;;4.27;;
20038;SDS011;21737;42.868;25.320;2023-04-16T17:40:41;6.33;;;4.30;;
20038;SDS011;21737;42.868;25.320;2023-04-16T17:43:43;6.70;;;4.50;;
20038;SDS011;21737;42.868;25.320;2023-04-16T17:46:47;8.73;;;4.47;;
20038;SDS011;21737;42.868;25.320;2023-04-16T17:49:51;6.73;;;4.57;;
20038;SDS011;21737;42.868;25.320;2023-04-16T17:52:53;10.77;;;4.80;;
20038;SDS011;21737;42.868;25.320;2023-04-16T17:55:54;8.07;;;4.50;;
20038;SDS011;21737;42.868;25.320;2023-04-16T17:58:57;10.30;;;4.63;;
20038;SDS011;21737;42.868;25.320;2023-04-16T18:01:59;8.07;;;4.27;;
20038;SDS011;21737;42.868;25.320;2023-04-16T18:05:01;8.27;;;4.40;;